Time;durP1;ratioP1;P1;durP2;ratioP2;P2;SDS_P1;SDS_P2;PMS_P1;PMS_P2;Temp;Humidity;BMP_temperature;BMP_pressure;BME280_temperature;BME280_humidity;BME280_pressure;Samples;Min_cycle;Max_cycle;Signal;HPM_P1;HPM_P2
2022/11/12 00:01:09;;;;;;;90.13;8.70;;;8.20;1.00;;;;;;5040381;28;20484;-81
2022/11/12 00:03:39;;;;;;;39.03;8.33;;;8.30;1.50;;;;;;5054878;28;20394;-81
2022/11/12 00:08:57;;;;;;;40.60;7.37;;;8.20;1.00;;;;;;5111381;27;20614;-81
2022/11/12 00:11:33;;;;;;;38.87;6.80;;;8.20;1.00;;;;;;5108421;28;20432;-84
2022/11/12 00:13:59;;;;;;;32.83;5.70;;;8.20;1.00;;;;;;5107773;28;20458;-84
2022/11/12 00:16:27;;;;;;;65.07;6.17;;;8.20;1.00;;;;;;5102487;28;20440;-84
2022/11/12 00:18:57;;;;;;;54.90;7.40;;;8.20;1.00;;;;;;5107029;28;20178;-84
2022/11/12 00:21:44;;;;;;;91.00;7.70;;;8.10;1.00;;;;;;5097929;28;20408;-84
2022/11/12 00:24:15;;;;;;;60.67;7.33;;;8.10;1.00;;;;;;5111291;28;20420;-84
2022/11/12 00:26:41;;;;;;;97.20;7.30;;;8.10;1.00;;;;;;5111215;28;20949;-81
2022/11/12 00:29:09;;;;;;;58.23;7.40;;;8.10;1.00;;;;;;5107607;28;20435;-81
2022/11/12 00:31:39;;;;;;;37.93;5.97;;;8.10;1.00;;;;;;5090692;28;20645;-80
2022/11/12 00:34:05;;;;;;;22.53;5.60;;;8.10;1.00;;;;;;5097908;28;20428;-81
2022/11/12 00:36:30;;;;;;;50.97;8.43;;;8.10;1.00;;;;;;5107060;28;20522;-81
2022/11/12 00:39:27;;;;;;;29.97;6.63;;;8.10;1.00;;;;;;5109528;28;20203;-81
2022/11/12 00:42:32;;;;;;;32.97;6.83;;;8.10;1.00;;;;;;5090965;28;20158;-84
2022/11/12 00:44:58;;;;;;;62.40;7.83;;;8.10;1.00;;;;;;5107478;28;20430;-84
2022/11/12 00:48:08;;;;;;;86.17;7.80;;;8.10;1.00;;;;;;5095672;28;20456;-84
2022/11/12 00:53:56;;;;;;;29.93;8.13;;;8.10;1.00;;;;;;5093677;28;20473;-84
2022/11/12 00:56:51;;;;;;;36.33;7.47;;;8.10;1.00;;;;;;5100731;28;20475;-84
2022/11/12 01:00:02;;;;;;;32.63;7.90;;;8.10;1.00;;;;;;5098098;28;20194;-84
2022/11/12 01:02:39;;;;;;;45.53;8.30;;;8.00;1.00;;;;;;5097212;28;20445;-84
2022/11/12 01:11:48;;;;;;;30.10;5.97;;;8.10;1.00;;;;;;5098921;28;20461;-81
2022/11/12 01:14:51;;;;;;;22.40;6.97;;;8.00;1.00;;;;;;5099502;28;20415;-81
2022/11/12 01:17:21;;;;;;;26.77;7.57;;;8.00;1.20;;;;;;5101888;28;20185;-80
2022/11/12 01:20:09;;;;;;;14.50;5.90;;;8.00;1.80;;;;;;5079280;28;20769;-81
2022/11/12 01:22:39;;;;;;;42.30;7.90;;;8.00;2.90;;;;;;5091829;28;20950;-80
2022/11/12 01:25:21;;;;;;;43.37;7.43;;;8.00;3.40;;;;;;5094776;28;20871;-81
2022/11/12 01:31:13;;;;;;;29.83;6.90;;;8.00;3.90;;;;;;5087777;28;20407;-84
2022/11/12 01:37:01;;;;;;;30.93;6.90;;;8.10;2.80;;;;;;5089698;28;20447;-84
2022/11/12 01:39:33;;;;;;;26.83;7.60;;;8.10;1.80;;;;;;5075965;28;20425;-84
2022/11/12 01:42:03;;;;;;;35.07;6.80;;;8.10;2.00;;;;;;5074926;28;20171;-81
2022/11/12 01:44:34;;;;;;;25.30;6.83;;;8.00;2.60;;;;;;5079770;28;20417;-80
2022/11/12 01:47:13;;;;;;;34.43;6.93;;;8.00;4.20;;;;;;5075731;28;20540;-81
2022/11/12 01:50:00;;;;;;;33.07;9.23;;;8.00;4.40;;;;;;5089194;28;20425;-80
2022/11/12 01:52:41;;;;;;;15.80;6.60;;;8.00;4.40;;;;;;5077998;28;20791;-81
2022/11/12 01:55:12;;;;;;;39.13;8.10;;;8.00;5.70;;;;;;5082201;28;20554;-81
2022/11/12 01:58:10;;;;;;;48.90;8.30;;;8.00;4.90;;;;;;5086562;28;20433;-80
2022/11/12 02:01:03;;;;;;;29.73;7.70;;;8.00;5.00;;;;;;5077902;28;20796;-81
2022/11/12 02:03:33;;;;;;;37.57;7.20;;;7.90;6.50;;;;;;5091991;28;20432;-82
2022/11/12 02:06:04;;;;;;;29.70;7.80;;;7.90;8.20;;;;;;5090195;28;20422;-80
2022/11/12 02:08:40;;;;;;;18.53;6.90;;;7.90;9.00;;;;;;5075381;28;21006;-81
2022/11/12 02:11:18;;;;;;;36.83;6.80;;;8.00;8.90;;;;;;5074875;28;20528;-80
2022/11/12 02:14:07;;;;;;;39.33;7.07;;;8.00;8.70;;;;;;5088121;28;20450;-80
2022/11/12 02:16:57;;;;;;;14.20;7.17;;;8.00;8.10;;;;;;5075674;28;20421;-81
2022/11/12 02:19:23;;;;;;;19.73;7.13;;;8.00;8.80;;;;;;5076152;28;20536;-81
2022/11/12 02:22:03;;;;;;;40.23;7.97;;;8.00;7.40;;;;;;5077856;28;20471;-80
2022/11/12 02:24:39;;;;;;;27.30;7.50;;;8.00;8.00;;;;;;5078430;28;20637;-81
2022/11/12 02:27:10;;;;;;;34.57;8.37;;;8.00;8.80;;;;;;5088783;28;20517;-82
2022/11/12 02:29:51;;;;;;;34.60;9.00;;;8.00;8.70;;;;;;5075095;28;20508;-81
2022/11/12 02:32:51;;;;;;;67.27;10.87;;;8.00;10.70;;;;;;5080627;28;20938;-81
2022/11/12 02:35:16;;;;;;;43.20;8.97;;;8.10;8.30;;;;;;5084898;28;20412;-81
2022/11/12 02:38:09;;;;;;;34.47;9.90;;;8.00;8.10;;;;;;5078145;28;20448;-81
2022/11/12 02:40:45;;;;;;;31.30;8.63;;;7.90;9.10;;;;;;5088514;28;20185;-80
2022/11/12 02:46:32;;;;;;;92.90;10.33;;;8.00;11.00;;;;;;5077647;28;20470;-84
2022/11/12 02:52:20;;;;;;;42.77;8.00;;;8.10;7.50;;;;;;5078683;28;20178;-84
2022/11/12 02:58:08;;;;;;;20.50;6.77;;;8.10;1.90;;;;;;5074494;28;20206;-81
2022/11/12 03:00:39;;;;;;;45.57;6.47;;;8.00;1.00;;;;;;5078432;28;20433;-81
2022/11/12 03:03:09;;;;;;;26.73;6.23;;;8.10;2.90;;;;;;5074312;28;20467;-81
2022/11/12 03:05:53;;;;;;;32.63;6.57;;;8.10;3.50;;;;;;5086618;28;20432;-80
2022/11/12 03:08:39;;;;;;;27.07;6.50;;;8.10;4.00;;;;;;5083757;28;20476;-81
2022/11/12 03:11:11;;;;;;;37.03;6.83;;;8.10;5.00;;;;;;5076755;28;20466;-81
2022/11/12 03:13:40;;;;;;;49.23;7.00;;;8.10;8.50;;;;;;5087459;28;20417;-81
2022/11/12 03:16:33;;;;;;;31.73;6.70;;;8.10;5.10;;;;;;5074623;28;20429;-81
2022/11/12 03:19:03;;;;;;;33.67;6.70;;;8.10;3.30;;;;;;5075382;28;20477;-80
2022/11/12 03:21:33;;;;;;;29.03;5.57;;;8.10;3.70;;;;;;5077029;28;20979;-81
2022/11/12 03:27:20;;;;;;;24.60;6.40;;;8.10;4.80;;;;;;5079472;28;20471;-81
2022/11/12 03:30:21;;;;;;;15.13;5.60;;;8.10;2.40;;;;;;5082882;28;20410;-84
2022/11/12 03:36:09;;;;;;;15.23;5.43;;;8.10;3.30;;;;;;5079301;28;20428;-84
2022/11/12 03:38:45;;;;;;;29.00;6.20;;;8.10;1.00;;;;;;5086311;28;20932;-84
2022/11/12 03:41:11;;;;;;;58.87;7.00;;;8.10;1.00;;;;;;5090941;28;20259;-84
2022/11/12 03:44:03;;;;;;;15.57;6.10;;;8.10;2.40;;;;;;5088022;28;20822;-81
2022/11/12 03:46:33;;;;;;;25.10;5.50;;;8.10;2.80;;;;;;5085453;28;20715;-81
2022/11/12 03:49:21;;;;;;;35.97;5.70;;;8.00;3.00;;;;;;5092642;28;20416;-81
2022/11/12 03:51:51;;;;;;;13.80;5.70;;;8.10;3.30;;;;;;5084450;28;20432;-81
2022/11/12 03:54:21;;;;;;;12.37;5.50;;;8.10;1.20;;;;;;5079190;28;20415;-81
2022/11/12 03:56:51;;;;;;;64.03;6.60;;;8.10;1.00;;;;;;5071801;28;20943;-81
2022/11/12 04:00:09;;;;;;;24.07;5.73;;;8.10;1.00;;;;;;5076881;28;20430;-84
2022/11/12 04:03:20;;;;;;;29.17;6.70;;;8.00;1.00;;;;;;5086228;28;20404;-84
2022/11/12 04:09:07;;;;;;;20.40;7.00;;;7.90;1.00;;;;;;5080711;28;20807;-84
2022/11/12 04:14:54;;;;;;;26.10;7.60;;;8.00;1.00;;;;;;5073902;28;20264;-84
2022/11/12 04:23:45;;;;;;;42.13;7.03;;;7.80;4.50;;;;;;5086436;28;20466;-85
2022/11/12 04:26:23;;;;;;;29.83;7.60;;;7.80;3.90;;;;;;5076354;28;20964;-84
2022/11/12 04:31:57;;;;;;;31.43;7.83;;;7.80;4.60;;;;;;5080250;28;20452;-84
2022/11/12 04:37:44;;;;;;;47.83;7.50;;;7.90;5.20;;;;;;5089463;28;20400;-85
2022/11/12 04:46:51;;;;;;;32.97;8.20;;;7.90;6.70;;;;;;5073150;28;20412;-81
2022/11/12 04:49:27;;;;;;;37.07;7.57;;;7.90;8.10;;;;;;5079494;28;21123;-81
2022/11/12 04:52:04;;;;;;;28.93;6.87;;;8.00;7.80;;;;;;5074042;28;20428;-81
2022/11/12 04:54:39;;;;;;;22.00;6.80;;;7.90;10.70;;;;;;5077605;28;20539;-81
2022/11/12 04:57:21;;;;;;;53.37;7.13;;;7.90;10.20;;;;;;5075799;28;20420;-81
2022/11/12 05:03:09;;;;;;;41.70;8.40;;;8.00;10.90;;;;;;5075677;28;20436;-84
2022/11/12 05:05:45;;;;;;;16.63;8.00;;;8.00;6.40;;;;;;5082531;28;20420;-84
2022/11/12 05:08:27;;;;;;;12.00;7.00;;;8.00;6.20;;;;;;5076799;28;20206;-84
2022/11/12 05:11:27;;;;;;;19.20;8.87;;;8.00;8.00;;;;;;5085913;28;20873;-84
2022/11/12 05:17:14;;;;;;;39.73;7.83;;;8.00;11.20;;;;;;5081117;28;20507;-84
2022/11/12 05:19:46;;;;;;;32.70;9.03;;;8.10;10.20;;;;;;5076429;28;21209;-84
2022/11/12 05:26:03;;;;;;;28.13;8.40;;;8.10;7.70;;;;;;5083142;28;20423;-84
2022/11/12 05:28:57;;;;;;;30.73;7.40;;;8.10;7.50;;;;;;5080675;28;20464;-84
2022/11/12 05:34:44;;;;;;;34.50;7.93;;;8.10;10.70;;;;;;5076037;28;20459;-84
2022/11/12 05:37:57;;;;;;;33.73;7.63;;;8.10;8.90;;;;;;5080402;28;20791;-84
2022/11/12 05:43:44;;;;;;;87.20;9.70;;;8.10;9.50;;;;;;5076898;28;20531;-84
2022/11/12 05:47:05;;;;;;;19.60;7.67;;;8.10;9.30;;;;;;5076356;28;20756;-85
2022/11/12 05:49:33;;;;;;;79.03;12.03;;;8.00;8.10;;;;;;5079927;28;20565;-81
2022/11/12 05:52:03;;;;;;;53.20;10.43;;;8.10;9.00;;;;;;5089613;28;20769;-81
2022/11/12 05:54:57;;;;;;;44.70;9.50;;;8.10;7.30;;;;;;5074172;28;20765;-82
2022/11/12 05:57:45;;;;;;;48.57;9.13;;;8.10;7.40;;;;;;5084379;28;20397;-81
2022/11/12 06:00:11;;;;;;;20.50;8.50;;;8.10;5.60;;;;;;5079291;28;20429;-85
2022/11/12 06:06:23;;;;;;;80.70;10.10;;;8.10;2.90;;;;;;5080992;28;20802;-84
2022/11/12 06:08:49;;;;;;;24.07;8.60;;;8.00;5.00;;;;;;5082278;28;20579;-84
2022/11/12 06:11:15;;;;;;;24.67;8.10;;;8.00;4.40;;;;;;5084460;28;20436;-83
2022/11/12 06:13:51;;;;;;;42.53;8.30;;;8.10;4.00;;;;;;5083656;28;20456;-85
2022/11/12 06:16:56;;;;;;;32.87;8.87;;;8.00;5.30;;;;;;5080923;28;20942;-84
2022/11/12 06:19:51;;;;;;;25.17;8.50;;;8.10;6.40;;;;;;5075331;28;20461;-84
2022/11/12 06:22:27;;;;;;;22.47;8.30;;;8.10;5.50;;;;;;5077635;28;20443;-84
2022/11/12 06:28:15;;;;;;;25.33;7.40;;;8.10;3.90;;;;;;5088418;28;20483;-84
2022/11/12 06:31:09;;;;;;;31.77;8.10;;;8.10;3.80;;;;;;5091662;28;20892;-84
2022/11/12 06:36:56;;;;;;;35.57;9.47;;;8.10;3.80;;;;;;5088231;28;20428;-84
2022/11/12 06:40:03;;;;;;;21.87;7.83;;;8.20;2.80;;;;;;5073925;28;20935;-84
2022/11/12 06:42:33;;;;;;;16.80;7.93;;;8.20;1.00;;;;;;5087076;28;20186;-84
2022/11/12 06:45:45;;;;;;;12.80;7.73;;;8.20;1.00;;;;;;5077792;28;20416;-84
2022/11/12 06:48:56;;;;;;;16.70;9.70;;;8.10;1.00;;;;;;5083926;28;20534;-84
2022/11/12 06:51:49;;;;;;;26.73;10.30;;;8.20;1.00;;;;;;5084691;28;20429;-84
2022/11/12 06:57:36;;;;;;;16.70;9.00;;;8.20;1.00;;;;;;5078793;28;20406;-84
2022/11/12 07:00:04;;;;;;;13.77;9.40;;;8.20;1.00;;;;;;5082019;28;20433;-83
2022/11/12 07:02:33;;;;;;;17.60;8.90;;;8.20;1.00;;;;;;5074924;28;20205;-80
2022/11/12 07:05:39;;;;;;;16.40;8.47;;;8.20;1.00;;;;;;5075379;28;20798;-80
2022/11/12 07:08:15;;;;;;;16.87;10.30;;;8.20;1.00;;;;;;5077301;28;20480;-81
2022/11/12 07:10:41;;;;;;;22.20;8.77;;;8.20;1.00;;;;;;5074621;28;20413;-81
2022/11/12 07:13:07;;;;;;;13.50;8.60;;;8.10;1.00;;;;;;5081821;28;20470;-81
2022/11/12 07:15:33;;;;;;;43.13;9.00;;;8.10;1.00;;;;;;5082273;28;20231;-81
2022/11/12 07:18:15;;;;;;;18.17;9.17;;;8.20;1.00;;;;;;5078066;28;20196;-80
2022/11/12 07:21:06;;;;;;;20.97;8.07;;;8.20;1.00;;;;;;5087677;28;20503;-77
2022/11/12 07:23:35;;;;;;;23.80;8.97;;;8.20;1.00;;;;;;5080967;28;20413;-76
2022/11/12 07:26:06;;;;;;;29.47;9.00;;;8.20;1.00;;;;;;5074303;28;20421;-75
2022/11/12 07:28:51;;;;;;;25.20;8.53;;;8.20;1.00;;;;;;5073663;28;20895;-86
2022/11/12 07:31:18;;;;;;;25.57;8.23;;;8.30;1.00;;;;;;5077032;28;20420;-86
2022/11/12 07:33:57;;;;;;;14.07;8.73;;;8.30;1.00;;;;;;5074720;28;21034;-85
2022/11/12 07:43:16;;;;;;;21.27;11.00;;;8.40;1.00;;;;;;5086540;28;20522;-85
2022/11/12 07:45:41;;;;;;;16.13;9.17;;;8.50;1.00;;;;;;5074882;28;20420;-82
2022/11/12 07:48:28;;;;;;;30.70;10.47;;;8.50;1.00;;;;;;5088537;28;20459;-82
2022/11/12 07:51:02;;;;;;;31.23;9.87;;;8.50;1.00;;;;;;5081497;28;20636;-82
2022/11/12 07:53:40;;;;;;;26.73;11.63;;;8.50;1.00;;;;;;5084248;28;21000;-81
2022/11/12 07:56:18;;;;;;;20.00;11.40;;;8.50;1.00;;;;;;5078348;28;20416;-81
2022/11/12 07:58:51;;;;;;;17.40;9.70;;;8.50;1.00;;;;;;5082554;28;20481;-82
2022/11/12 08:01:32;;;;;;;17.90;9.70;;;8.60;1.00;;;;;;5079807;28;20412;-85
2022/11/12 08:07:19;;;;;;;23.80;10.97;;;8.60;1.00;;;;;;5075867;28;20487;-85
2022/11/12 08:09:45;;;;;;;16.17;9.93;;;8.60;1.00;;;;;;5088097;28;20429;-86
2022/11/12 08:12:28;;;;;;;20.13;9.93;;;8.60;1.00;;;;;;5081508;28;20174;-80
2022/11/12 08:15:39;;;;;;;17.90;10.70;;;8.60;1.00;;;;;;5090689;28;20622;-81
2022/11/12 08:24:49;;;;;;;22.13;12.80;;;8.60;1.00;;;;;;5079863;28;20776;-85
2022/11/12 08:34:45;;;;;;;19.37;10.20;;;8.80;1.00;;;;;;5078913;28;20419;-85
2022/11/12 08:37:57;;;;;;;21.07;11.43;;;8.80;1.00;;;;;;5077292;28;20478;-85
2022/11/12 08:40:29;;;;;;;16.00;9.80;;;8.80;1.00;;;;;;5090091;28;20943;-85
2022/11/12 08:43:03;;;;;;;19.73;10.47;;;8.80;1.00;;;;;;5077051;28;20528;-85
2022/11/12 08:45:47;;;;;;;28.53;10.83;;;8.80;1.00;;;;;;5085217;28;20979;-83
2022/11/12 08:48:28;;;;;;;17.03;10.27;;;8.80;1.00;;;;;;5082242;28;20460;-81
2022/11/12 08:51:21;;;;;;;21.23;10.83;;;8.90;1.00;;;;;;5080844;28;20458;-81
2022/11/12 08:53:47;;;;;;;23.30;11.43;;;8.80;1.00;;;;;;5078515;28;20440;-81
2022/11/12 09:00:03;;;;;;;16.30;9.93;;;8.80;1.00;;;;;;5086991;28;20194;-81
2022/11/12 09:02:39;;;;;;;22.13;12.03;;;8.70;1.00;;;;;;5076668;28;20516;-81
2022/11/12 09:05:15;;;;;;;24.90;9.90;;;8.80;1.00;;;;;;5076580;28;20395;-81
2022/11/12 09:08:12;;;;;;;19.00;11.60;;;8.80;1.00;;;;;;5078842;28;20578;-82
2022/11/12 09:10:39;;;;;;;19.53;11.27;;;8.80;1.00;;;;;;5008541;28;21041;-81
2022/11/12 09:13:33;;;;;;;18.00;10.93;;;8.80;1.00;;;;;;5004958;28;20434;-81
2022/11/12 09:16:51;;;;;;;17.97;11.57;;;8.90;1.00;;;;;;5009236;28;20443;-81
2022/11/12 09:22:46;;;;;;;19.97;12.20;;;8.90;1.00;;;;;;5014349;28;20449;-85
2022/11/12 09:25:57;;;;;;;20.03;11.20;;;9.00;1.00;;;;;;4998456;28;20538;-86
2022/11/12 09:31:44;;;;;;;19.37;10.73;;;9.00;1.00;;;;;;5009202;28;20582;-81
2022/11/12 09:34:16;;;;;;;17.50;10.80;;;9.10;1.00;;;;;;5012429;28;20519;-81
2022/11/12 09:36:57;;;;;;;45.37;12.10;;;9.10;1.00;;;;;;5014008;28;20181;-81
2022/11/12 09:39:27;;;;;;;21.07;11.90;;;9.20;1.00;;;;;;4989727;28;20997;-81
2022/11/12 09:42:08;;;;;;;18.57;11.77;;;9.20;1.00;;;;;;5013214;28;20463;-81
2022/11/12 09:44:42;;;;;;;19.77;10.30;;;9.20;1.00;;;;;;5013891;28;20431;-81
2022/11/12 09:47:45;;;;;;;22.23;10.67;;;9.20;1.00;;;;;;5049506;28;20438;-82
2022/11/12 09:50:28;;;;;;;17.90;10.90;;;9.30;1.00;;;;;;5074503;28;20428;-81
2022/11/12 09:53:15;;;;;;;19.10;10.30;;;9.30;1.00;;;;;;5081599;28;20432;-79
2022/11/12 09:55:49;;;;;;;20.27;12.03;;;9.30;1.00;;;;;;5080778;28;20435;-83
2022/11/12 09:59:10;;;;;;;18.83;10.27;;;9.40;1.00;;;;;;5077841;28;20546;-85
2022/11/12 10:01:53;;;;;;;22.30;10.67;;;9.40;1.00;;;;;;5081218;28;20486;-79
2022/11/12 10:05:01;;;;;;;21.23;10.93;;;9.40;1.00;;;;;;5079218;28;20439;-84
2022/11/12 10:08:04;;;;;;;21.37;12.17;;;9.50;1.00;;;;;;5076125;28;20817;-83
2022/11/12 10:11:22;;;;;;;19.57;10.63;;;9.50;1.00;;;;;;5085159;28;20513;-86
2022/11/12 10:14:16;;;;;;;23.87;12.53;;;9.50;1.00;;;;;;5077998;28;20448;-90
2022/11/12 10:17:10;;;;;;;18.10;11.07;;;9.60;1.00;;;;;;5077122;28;20797;-81
2022/11/12 10:20:19;;;;;;;22.77;10.97;;;9.60;1.00;;;;;;5076582;28;20967;-82
2022/11/12 10:23:10;;;;;;;17.83;11.27;;;9.70;1.00;;;;;;5078690;28;20436;-88
2022/11/12 10:25:59;;;;;;;20.13;11.80;;;9.70;1.00;;;;;;5081814;28;20442;-80
2022/11/12 10:28:32;;;;;;;19.07;11.17;;;9.70;1.00;;;;;;5085113;28;20451;-81
2022/11/12 10:31:22;;;;;;;16.23;10.43;;;9.80;1.00;;;;;;5075235;28;20437;-80
2022/11/12 10:34:25;;;;;;;19.70;11.07;;;9.80;1.00;;;;;;5079820;28;20920;-80
2022/11/12 10:36:59;;;;;;;16.57;10.67;;;9.90;1.00;;;;;;5047206;28;20865;-80
2022/11/12 10:39:58;;;;;;;17.53;11.47;;;9.90;1.00;;;;;;5046937;28;20461;-81
2022/11/12 10:42:24;;;;;;;21.53;11.50;;;9.90;1.00;;;;;;5050563;28;20433;-81
2022/11/12 10:45:12;;;;;;;21.70;12.30;;;9.90;1.00;;;;;;5051832;28;20445;-80
2022/11/12 10:47:41;;;;;;;18.90;11.03;;;10.00;1.00;;;;;;5042514;28;20200;-80
2022/11/12 10:50:28;;;;;;;19.50;10.53;;;10.00;1.00;;;;;;5042083;28;20830;-80
2022/11/12 10:53:03;;;;;;;19.87;12.27;;;10.10;1.00;;;;;;5049509;28;20949;-81
2022/11/12 10:56:03;;;;;;;17.60;11.60;;;10.10;1.00;;;;;;5048116;28;20429;-81
2022/11/12 10:59:12;;;;;;;23.60;11.97;;;10.20;1.00;;;;;;4985850;28;20436;-81
2022/11/12 11:01:58;;;;;;;17.93;10.97;;;10.20;1.00;;;;;;4951622;29;20907;-80
2022/11/12 11:04:41;;;;;;;20.33;12.87;;;10.20;1.00;;;;;;4953063;29;20466;-80
2022/11/12 11:07:22;;;;;;;22.20;13.13;;;10.30;1.00;;;;;;4936128;28;20481;-80
2022/11/12 11:10:34;;;;;;;21.57;12.50;;;10.40;1.00;;;;;;4953138;28;20473;-81
2022/11/12 11:13:25;;;;;;;26.93;14.93;;;10.40;1.00;;;;;;4987971;28;20444;-79
2022/11/12 11:16:40;;;;;;;27.27;14.10;;;10.50;1.00;;;;;;4984820;28;20441;-81
2022/11/12 11:19:18;;;;;;;25.37;14.67;;;10.50;1.00;;;;;;4977387;28;20450;-80
2022/11/12 11:22:34;;;;;;;25.23;14.40;;;10.60;1.00;;;;;;4986927;28;20444;-80
2022/11/12 11:25:29;;;;;;;25.77;14.63;;;10.60;1.00;;;;;;4974080;28;20497;-80
2022/11/12 11:28:37;;;;;;;28.73;16.47;;;10.60;1.00;;;;;;4987749;28;20580;-80
2022/11/12 11:31:39;;;;;;;32.90;18.07;;;10.50;1.00;;;;;;4961482;28;20425;-80
2022/11/12 11:34:41;;;;;;;31.30;17.00;;;10.30;1.00;;;;;;4931350;29;20478;-74
2022/11/12 11:37:24;;;;;;;30.87;17.20;;;10.40;1.00;;;;;;4950206;29;20436;-74
2022/11/12 11:39:55;;;;;;;32.60;17.10;;;10.40;1.00;;;;;;4952158;28;20442;-74
2022/11/12 11:42:29;;;;;;;31.07;16.30;;;10.40;1.00;;;;;;4972497;28;20449;-74
2022/11/12 11:45:14;;;;;;;29.53;16.50;;;10.30;1.00;;;;;;4975103;28;20491;-74
2022/11/12 11:47:58;;;;;;;32.30;16.50;;;10.40;1.00;;;;;;4967514;28;20473;-74
2022/11/12 11:50:41;;;;;;;38.80;17.37;;;10.50;1.00;;;;;;4960897;28;20488;-75
2022/11/12 11:53:48;;;;;;;32.13;16.87;;;10.50;1.00;;;;;;4977596;28;20943;-77
2022/11/12 11:56:26;;;;;;;27.63;14.50;;;10.60;1.00;;;;;;4967990;28;20429;-72
2022/11/12 11:59:10;;;;;;;28.37;15.70;;;10.70;1.00;;;;;;4972019;28;20441;-72
2022/11/12 12:01:57;;;;;;;26.60;14.80;;;10.70;1.00;;;;;;4972108;28;20429;-73
2022/11/12 12:04:49;;;;;;;22.03;13.97;;;10.80;1.00;;;;;;4972430;28;20445;-73
2022/11/12 12:07:31;;;;;;;27.10;15.37;;;10.80;1.00;;;;;;4994414;28;21009;-74
2022/11/12 12:10:24;;;;;;;29.17;16.57;;;11.00;1.00;;;;;;5033466;28;20454;-74
2022/11/12 12:13:27;;;;;;;29.27;18.10;;;11.10;1.00;;;;;;4994796;28;20459;-74
2022/11/12 12:16:25;;;;;;;28.70;16.63;;;11.10;1.00;;;;;;5003507;28;20474;-74
2022/11/12 12:19:05;;;;;;;30.90;18.37;;;11.00;1.00;;;;;;5010680;28;20828;-74
2022/11/12 12:21:35;;;;;;;27.30;16.40;;;11.00;1.00;;;;;;5007504;28;20451;-74
2022/11/12 12:24:08;;;;;;;27.70;17.13;;;11.00;1.00;;;;;;5005456;28;20447;-74
2022/11/12 12:26:42;;;;;;;29.87;17.33;;;11.10;1.00;;;;;;5005959;28;20436;-74
2022/11/12 12:29:32;;;;;;;33.10;18.70;;;11.00;1.00;;;;;;5010396;28;20471;-74
2022/11/12 12:32:14;;;;;;;28.90;16.70;;;11.10;1.00;;;;;;4988228;28;20432;-76
2022/11/12 12:34:49;;;;;;;29.80;15.93;;;11.00;1.00;;;;;;5003530;28;20470;-74
2022/11/12 12:37:32;;;;;;;28.63;17.20;;;11.00;1.00;;;;;;5001981;28;20447;-74
2022/11/12 12:40:12;;;;;;;31.40;17.13;;;11.00;1.00;;;;;;5004743;28;20514;-74
2022/11/12 12:43:18;;;;;;;29.40;17.87;;;11.00;1.00;;;;;;5004391;28;20950;-74
2022/11/12 12:45:45;;;;;;;27.03;16.00;;;11.00;1.00;;;;;;4998392;28;20425;-74
2022/11/12 12:48:33;;;;;;;29.50;17.57;;;11.00;1.00;;;;;;4998823;28;21046;-74
2022/11/12 12:51:00;;;;;;;27.67;17.40;;;11.10;1.00;;;;;;5081069;28;20476;-75
2022/11/12 12:53:26;;;;;;;28.33;17.17;;;11.10;1.00;;;;;;5086317;28;20421;-74
2022/11/12 12:56:04;;;;;;;30.47;17.27;;;11.10;1.00;;;;;;5076229;28;20428;-72
2022/11/12 12:59:02;;;;;;;27.13;16.23;;;11.10;1.00;;;;;;5073966;28;20272;-80
2022/11/12 13:01:33;;;;;;;31.90;17.63;;;11.10;1.00;;;;;;5079684;28;20432;-80
2022/11/12 13:04:11;;;;;;;33.77;17.73;;;11.00;1.00;;;;;;5082477;28;20467;-80
2022/11/12 13:06:52;;;;;;;30.53;18.47;;;11.00;1.00;;;;;;5082936;28;20425;-83
2022/11/12 13:09:18;;;;;;;30.90;18.40;;;11.10;1.00;;;;;;5080211;28;20483;-83
2022/11/12 13:12:28;;;;;;;30.60;17.87;;;11.10;1.00;;;;;;5073216;28;20406;-85
2022/11/12 13:22:15;;;;;;;30.00;16.83;;;11.30;1.00;;;;;;5077410;28;20435;-82
2022/11/12 13:25:23;;;;;;;32.37;16.93;;;11.20;1.00;;;;;;5079861;28;20514;-87
2022/11/12 13:31:46;;;;;;;31.37;17.80;;;11.30;1.00;;;;;;5076917;28;20756;-87
2022/11/12 13:37:34;;;;;;;30.77;17.67;;;11.30;1.00;;;;;;5076602;28;20462;-81
2022/11/12 13:40:28;;;;;;;31.10;17.40;;;11.30;1.00;;;;;;5087694;28;20420;-81
2022/11/12 13:43:16;;;;;;;27.67;16.10;;;11.30;1.00;;;;;;5074682;28;20187;-81
2022/11/12 13:45:53;;;;;;;28.63;17.27;;;11.20;1.00;;;;;;5082407;28;20439;-81
2022/11/12 13:48:35;;;;;;;29.67;18.03;;;11.20;1.00;;;;;;5082924;28;20523;-81
2022/11/12 13:51:13;;;;;;;29.40;18.40;;;11.30;1.00;;;;;;5083402;28;20793;-81
2022/11/12 13:54:22;;;;;;;29.23;17.50;;;11.20;1.00;;;;;;5082569;28;20435;-86
2022/11/12 13:56:53;;;;;;;28.13;17.40;;;11.20;1.00;;;;;;5080121;28;20440;-86
2022/11/12 13:59:24;;;;;;;28.93;18.10;;;11.20;1.00;;;;;;5081043;28;20902;-86
2022/11/12 14:02:24;;;;;;;30.43;18.00;;;11.20;1.00;;;;;;5083043;28;20473;-86
2022/11/12 14:18:36;;;;;;;26.00;16.00;;;11.10;1.00;;;;;;5075818;28;20370;-86
2022/11/12 14:24:24;;;;;;;26.70;16.63;;;11.00;1.00;;;;;;5088703;28;20909;-81
2022/11/12 14:27:41;;;;;;;26.87;17.63;;;11.00;1.00;;;;;;5083712;28;20501;-81
2022/11/12 14:30:19;;;;;;;26.13;16.80;;;10.90;1.00;;;;;;4993927;28;20225;-81
2022/11/12 14:32:53;;;;;;;36.37;18.37;;;10.80;1.00;;;;;;5011762;28;20448;-81
2022/11/12 14:35:29;;;;;;;27.80;17.50;;;10.80;1.00;;;;;;4978639;28;20421;-80
2022/11/12 14:38:23;;;;;;;29.03;17.63;;;10.80;1.00;;;;;;5011688;28;20419;-82
2022/11/12 14:40:57;;;;;;;31.90;17.23;;;10.70;1.00;;;;;;4995183;28;20436;-81
2022/11/12 14:43:35;;;;;;;32.40;17.40;;;10.70;1.00;;;;;;5010654;28;20423;-80
2022/11/12 14:46:42;;;;;;;29.67;17.00;;;10.60;1.00;;;;;;5002579;28;20424;-78
2022/11/12 14:49:35;;;;;;;30.00;17.70;;;10.50;1.00;;;;;;4960523;28;20462;-79
2022/11/12 14:52:40;;;;;;;32.13;17.40;;;10.50;1.00;;;;;;4960552;28;20890;-81
2022/11/12 14:55:27;;;;;;;39.97;19.20;;;10.40;1.00;;;;;;4938075;29;20427;-82
2022/11/12 15:01:31;;;;;;;31.70;16.60;;;10.20;1.00;;;;;;4935367;29;20439;-82
2022/11/12 15:04:41;;;;;;;31.10;17.10;;;10.20;1.00;;;;;;4954150;29;20419;-81
2022/11/12 15:07:53;;;;;;;30.40;17.43;;;10.10;1.00;;;;;;5012622;28;20929;-80
2022/11/12 15:10:40;;;;;;;31.13;16.93;;;10.00;1.00;;;;;;4934924;29;20420;-78
2022/11/12 15:13:24;;;;;;;28.53;17.10;;;9.90;1.00;;;;;;4940350;29;20426;-78
2022/11/12 15:15:53;;;;;;;31.60;17.83;;;9.80;1.00;;;;;;4949511;29;20414;-78
2022/11/12 15:18:22;;;;;;;33.17;17.60;;;9.70;1.00;;;;;;4954065;29;20422;-79
2022/11/12 15:21:34;;;;;;;32.03;18.50;;;9.60;1.00;;;;;;4953963;29;20428;-80
2022/11/12 15:24:30;;;;;;;34.20;18.27;;;9.50;1.00;;;;;;4946961;28;20438;-82
2022/11/12 15:27:37;;;;;;;33.33;17.53;;;9.40;1.00;;;;;;5009094;28;20423;-82
2022/11/12 15:30:25;;;;;;;28.80;15.50;;;9.30;1.00;;;;;;4916016;29;20440;-83
2022/11/12 15:33:12;;;;;;;30.20;17.17;;;9.20;1.00;;;;;;4915880;29;20897;-83
2022/11/12 15:36:00;;;;;;;35.33;18.47;;;9.10;1.00;;;;;;4913941;29;20419;-81
2022/11/12 15:38:37;;;;;;;33.20;16.93;;;9.00;1.00;;;;;;4905214;29;20933;-81
2022/11/12 15:41:32;;;;;;;28.17;16.17;;;8.90;1.00;;;;;;4905801;29;21072;-82
2022/11/12 15:44:17;;;;;;;31.47;16.50;;;8.80;1.00;;;;;;4895380;29;20444;-81
2022/11/12 15:47:29;;;;;;;33.40;18.40;;;8.70;1.00;;;;;;4970147;28;20580;-80
2022/11/12 15:49:59;;;;;;;32.50;17.27;;;8.50;1.00;;;;;;5004915;28;20466;-82
2022/11/12 15:52:47;;;;;;;39.37;17.10;;;8.50;1.00;;;;;;4992441;28;20893;-81
2022/11/12 15:55:30;;;;;;;34.53;18.57;;;8.30;1.00;;;;;;5006120;28;20438;-81
2022/11/12 15:57:59;;;;;;;35.33;17.60;;;8.20;1.00;;;;;;4995579;28;20416;-81
2022/11/12 16:04:17;;;;;;;36.53;20.10;;;8.00;1.00;;;;;;5030953;28;20911;-81
2022/11/12 16:07:17;;;;;;;34.20;17.97;;;8.00;1.00;;;;;;5079924;28;20454;-81
2022/11/12 16:09:53;;;;;;;38.20;21.57;;;7.90;1.00;;;;;;5091996;28;20448;-76
2022/11/12 16:12:23;;;;;;;41.50;18.67;;;8.00;1.00;;;;;;5079293;28;20485;-76
2022/11/12 16:14:54;;;;;;;34.40;18.60;;;7.90;1.00;;;;;;5081250;28;20397;-76
2022/11/12 16:17:20;;;;;;;44.23;22.50;;;8.00;1.00;;;;;;5080241;28;20406;-75
2022/11/12 16:19:53;;;;;;;40.90;22.83;;;8.00;1.00;;;;;;5092629;28;20887;-76
2022/11/12 16:22:29;;;;;;;50.63;21.50;;;8.00;1.00;;;;;;5081557;28;20417;-77
2022/11/12 16:24:59;;;;;;;51.03;20.60;;;8.10;1.00;;;;;;5073991;28;20756;-76
2022/11/12 16:27:25;;;;;;;59.00;20.13;;;8.10;1.00;;;;;;5083155;28;20422;-76
2022/11/12 16:29:51;;;;;;;50.90;19.00;;;8.10;1.00;;;;;;5093317;28;20952;-76
2022/11/12 16:32:18;;;;;;;46.00;18.30;;;8.20;1.00;;;;;;5083653;28;20186;-77
2022/11/12 16:34:43;;;;;;;72.57;19.13;;;8.20;1.00;;;;;;5078727;28;20217;-77
2022/11/12 16:37:29;;;;;;;50.70;19.93;;;8.30;1.00;;;;;;5073447;28;20413;-77
2022/11/12 16:39:55;;;;;;;31.40;16.77;;;8.20;1.00;;;;;;5081437;28;20244;-81
2022/11/12 16:42:23;;;;;;;32.17;16.77;;;8.30;1.00;;;;;;5074147;28;20444;-79
2022/11/12 16:45:29;;;;;;;36.20;17.93;;;8.30;1.00;;;;;;5073390;28;20278;-80
2022/11/12 16:48:47;;;;;;;39.57;17.97;;;8.40;1.00;;;;;;5079303;28;20452;-82
2022/11/12 16:51:16;;;;;;;30.23;16.63;;;8.30;1.00;;;;;;5085885;28;20405;-82